sensor_id;sensor_type;location;lat;lon;timestamp;P1;durP1;ratioP1;P2;durP2;ratioP2
46407;SDS011;32110;45.724;21.276;2023-12-20T00:02:06;32.55;;;15.18;;
46407;SDS011;32110;45.724;21.276;2023-12-20T00:04:31;36.85;;;16.15;;
46407;SDS011;32110;45.724;21.276;2023-12-20T00:06:57;33.55;;;15.20;;
46407;SDS011;32110;45.724;21.276;2023-12-20T00:09:22;31.90;;;15.52;;
46407;SDS011;32110;45.724;21.276;2023-12-20T00:11:47;34.93;;;15.37;;
46407;SDS011;32110;45.724;21.276;2023-12-20T00:14:13;32.47;;;15.07;;
46407;SDS011;32110;45.724;21.276;2023-12-20T00:16:38;33.03;;;15.18;;
46407;SDS011;32110;45.724;21.276;2023-12-20T00:19:03;31.85;;;15.70;;
46407;SDS011;32110;45.724;21.276;2023-12-20T00:21:28;35.87;;;14.67;;
46407;SDS011;32110;45.724;21.276;2023-12-20T00:23:54;35.13;;;15.10;;
46407;SDS011;32110;45.724;21.276;2023-12-20T00:26:19;32.17;;;14.85;;
46407;SDS011;32110;45.724;21.276;2023-12-20T00:28:44;33.03;;;15.07;;
46407;SDS011;32110;45.724;21.276;2023-12-20T00:31:09;31.77;;;15.18;;
46407;SDS011;32110;45.724;21.276;2023-12-20T00:33:35;30.17;;;14.25;;
46407;SDS011;32110;45.724;21.276;2023-12-20T00:36:00;35.27;;;15.13;;
46407;SDS011;32110;45.724;21.276;2023-12-20T00:38:25;30.50;;;14.50;;
46407;SDS011;32110;45.724;21.276;2023-12-20T00:40:51;31.13;;;15.80;;
46407;SDS011;32110;45.724;21.276;2023-12-20T00:43:16;31.70;;;15.52;;
46407;SDS011;32110;45.724;21.276;2023-12-20T00:45:41;33.97;;;15.57;;
46407;SDS011;32110;45.724;21.276;2023-12-20T00:48:06;33.50;;;15.43;;
46407;SDS011;32110;45.724;21.276;2023-12-20T00:50:32;33.47;;;15.45;;
46407;SDS011;32110;45.724;21.276;2023-12-20T00:52:57;34.43;;;15.30;;
46407;SDS011;32110;45.724;21.276;2023-12-20T00:55:22;35.47;;;15.05;;
46407;SDS011;32110;45.724;21.276;2023-12-20T00:57:48;33.10;;;14.60;;
46407;SDS011;32110;45.724;21.276;2023-12-20T01:00:13;32.72;;;14.68;;
46407;SDS011;32110;45.724;21.276;2023-12-20T01:02:40;34.72;;;15.45;;
46407;SDS011;32110;45.724;21.276;2023-12-20T01:05:05;43.45;;;16.27;;
46407;SDS011;32110;45.724;21.276;2023-12-20T01:07:32;35.58;;;16.02;;
46407;SDS011;32110;45.724;21.276;2023-12-20T01:09:57;35.47;;;15.43;;
46407;SDS011;32110;45.724;21.276;2023-12-20T01:12:22;34.58;;;15.25;;
46407;SDS011;32110;45.724;21.276;2023-12-20T01:14:48;34.00;;;15.23;;
46407;SDS011;32110;45.724;21.276;2023-12-20T01:17:13;39.20;;;16.15;;
46407;SDS011;32110;45.724;21.276;2023-12-20T01:19:39;34.85;;;15.27;;
46407;SDS011;32110;45.724;21.276;2023-12-20T01:22:04;33.72;;;15.38;;
46407;SDS011;32110;45.724;21.276;2023-12-20T01:24:29;33.78;;;15.65;;
46407;SDS011;32110;45.724;21.276;2023-12-20T01:26:54;33.57;;;15.10;;
46407;SDS011;32110;45.724;21.276;2023-12-20T01:29:20;34.50;;;14.93;;
46407;SDS011;32110;45.724;21.276;2023-12-20T01:31:45;35.83;;;14.93;;
46407;SDS011;32110;45.724;21.276;2023-12-20T01:34:10;28.23;;;14.50;;
46407;SDS011;32110;45.724;21.276;2023-12-20T01:36:36;33.20;;;15.23;;
46407;SDS011;32110;45.724;21.276;2023-12-20T01:39:01;33.43;;;14.93;;
46407;SDS011;32110;45.724;21.276;2023-12-20T01:41:26;32.58;;;14.60;;
46407;SDS011;32110;45.724;21.276;2023-12-20T01:43:51;32.63;;;14.43;;
46407;SDS011;32110;45.724;21.276;2023-12-20T01:46:18;33.88;;;14.93;;
46407;SDS011;32110;45.724;21.276;2023-12-20T01:48:44;31.88;;;14.68;;
46407;SDS011;32110;45.724;21.276;2023-12-20T01:51:09;31.27;;;14.35;;
46407;SDS011;32110;45.724;21.276;2023-12-20T01:53:35;30.20;;;13.45;;
46407;SDS011;32110;45.724;21.276;2023-12-20T01:56:01;33.72;;;14.88;;
46407;SDS011;32110;45.724;21.276;2023-12-20T01:58:26;35.13;;;14.30;;
46407;SDS011;32110;45.724;21.276;2023-12-20T02:00:51;30.88;;;15.05;;
46407;SDS011;32110;45.724;21.276;2023-12-20T02:03:17;28.10;;;13.07;;
46407;SDS011;32110;45.724;21.276;2023-12-20T02:05:43;31.70;;;14.50;;
46407;SDS011;32110;45.724;21.276;2023-12-20T02:08:09;34.53;;;14.68;;
46407;SDS011;32110;45.724;21.276;2023-12-20T02:10:34;30.60;;;13.88;;
46407;SDS011;32110;45.724;21.276;2023-12-20T02:13:00;31.02;;;13.63;;
46407;SDS011;32110;45.724;21.276;2023-12-20T02:15:25;29.73;;;14.18;;
46407;SDS011;32110;45.724;21.276;2023-12-20T02:17:50;29.88;;;14.30;;
46407;SDS011;32110;45.724;21.276;2023-12-20T02:20:16;29.97;;;14.33;;
46407;SDS011;32110;45.724;21.276;2023-12-20T02:22:41;32.00;;;13.68;;
46407;SDS011;32110;45.724;21.276;2023-12-20T02:25:06;30.33;;;13.47;;
46407;SDS011;32110;45.724;21.276;2023-12-20T02:27:32;30.13;;;13.68;;
46407;SDS011;32110;45.724;21.276;2023-12-20T02:29:57;29.58;;;13.75;;
46407;SDS011;32110;45.724;21.276;2023-12-20T02:32:22;30.13;;;13.20;;
46407;SDS011;32110;45.724;21.276;2023-12-20T02:34:51;30.33;;;12.75;;
46407;SDS011;32110;45.724;21.276;2023-12-20T02:37:16;32.30;;;13.48;;
46407;SDS011;32110;45.724;21.276;2023-12-20T02:39:41;27.43;;;12.60;;
46407;SDS011;32110;45.724;21.276;2023-12-20T02:42:07;30.35;;;13.10;;
46407;SDS011;32110;45.724;21.276;2023-12-20T02:44:32;32.33;;;13.30;;
46407;SDS011;32110;45.724;21.276;2023-12-20T02:46:57;32.93;;;14.17;;
46407;SDS011;32110;45.724;21.276;2023-12-20T02:49:23;30.35;;;13.15;;
46407;SDS011;32110;45.724;21.276;2023-12-20T02:51:48;27.60;;;12.82;;
46407;SDS011;32110;45.724;21.276;2023-12-20T02:54:13;26.52;;;12.90;;
46407;SDS011;32110;45.724;21.276;2023-12-20T02:56:39;26.02;;;12.40;;
46407;SDS011;32110;45.724;21.276;2023-12-20T02:59:04;27.30;;;12.87;;
46407;SDS011;32110;45.724;21.276;2023-12-20T03:01:33;32.28;;;13.27;;
46407;SDS011;32110;45.724;21.276;2023-12-20T03:03:59;27.42;;;13.35;;
46407;SDS011;32110;45.724;21.276;2023-12-20T03:06:24;29.20;;;13.33;;
46407;SDS011;32110;45.724;21.276;2023-12-20T03:08:49;27.30;;;12.93;;
46407;SDS011;32110;45.724;21.276;2023-12-20T03:11:15;30.63;;;13.23;;
46407;SDS011;32110;45.724;21.276;2023-12-20T03:13:40;28.25;;;12.95;;
46407;SDS011;32110;45.724;21.276;2023-12-20T03:16:12;29.27;;;13.37;;
46407;SDS011;32110;45.724;21.276;2023-12-20T03:18:37;29.90;;;12.65;;
46407;SDS011;32110;45.724;21.276;2023-12-20T03:21:06;29.38;;;12.43;;
46407;SDS011;32110;45.724;21.276;2023-12-20T03:23:31;31.13;;;13.27;;
46407;SDS011;32110;45.724;21.276;2023-12-20T03:25:57;26.60;;;12.20;;
46407;SDS011;32110;45.724;21.276;2023-12-20T03:28:23;33.55;;;13.73;;
46407;SDS011;32110;45.724;21.276;2023-12-20T03:30:48;28.55;;;12.73;;
46407;SDS011;32110;45.724;21.276;2023-12-20T03:33:13;24.48;;;12.10;;
46407;SDS011;32110;45.724;21.276;2023-12-20T03:35:39;27.13;;;12.83;;
46407;SDS011;32110;45.724;21.276;2023-12-20T03:38:04;27.10;;;13.07;;
46407;SDS011;32110;45.724;21.276;2023-12-20T03:40:29;28.10;;;13.10;;
46407;SDS011;32110;45.724;21.276;2023-12-20T03:42:54;26.60;;;12.70;;
46407;SDS011;32110;45.724;21.276;2023-12-20T03:45:20;28.55;;;12.63;;
46407;SDS011;32110;45.724;21.276;2023-12-20T03:47:45;30.17;;;13.57;;
46407;SDS011;32110;45.724;21.276;2023-12-20T03:50:10;27.92;;;12.70;;
46407;SDS011;32110;45.724;21.276;2023-12-20T03:52:36;26.70;;;12.70;;
46407;SDS011;32110;45.724;21.276;2023-12-20T03:55:01;25.45;;;12.13;;
46407;SDS011;32110;45.724;21.276;2023-12-20T03:57:26;25.60;;;12.05;;
46407;SDS011;32110;45.724;21.276;2023-12-20T03:59:51;25.65;;;12.45;;
46407;SDS011;32110;45.724;21.276;2023-12-20T04:02:17;26.70;;;12.63;;
46407;SDS011;32110;45.724;21.276;2023-12-20T04:04:43;29.73;;;12.77;;
46407;SDS011;32110;45.724;21.276;2023-12-20T04:07:08;29.05;;;13.15;;
46407;SDS011;32110;45.724;21.276;2023-12-20T04:09:33;28.40;;;12.73;;
46407;SDS011;32110;45.724;21.276;2023-12-20T04:11:58;28.45;;;12.60;;
46407;SDS011;32110;45.724;21.276;2023-12-20T04:14:24;26.13;;;12.57;;
46407;SDS011;32110;45.724;21.276;2023-12-20T04:16:50;26.42;;;12.50;;
46407;SDS011;32110;45.724;21.276;2023-12-20T04:19:15;26.98;;;13.50;;
46407;SDS011;32110;45.724;21.276;2023-12-20T04:21:40;26.77;;;12.18;;
46407;SDS011;32110;45.724;21.276;2023-12-20T04:24:05;27.42;;;12.30;;
46407;SDS011;32110;45.724;21.276;2023-12-20T04:26:31;29.13;;;12.50;;
46407;SDS011;32110;45.724;21.276;2023-12-20T04:28:56;26.35;;;12.07;;
46407;SDS011;32110;45.724;21.276;2023-12-20T04:31:21;28.33;;;12.32;;
46407;SDS011;32110;45.724;21.276;2023-12-20T04:33:47;32.23;;;12.73;;
46407;SDS011;32110;45.724;21.276;2023-12-20T04:36:12;33.13;;;14.63;;
46407;SDS011;32110;45.724;21.276;2023-12-20T04:38:38;37.00;;;15.90;;
46407;SDS011;32110;45.724;21.276;2023-12-20T04:41:03;32.90;;;14.55;;
46407;SDS011;32110;45.724;21.276;2023-12-20T04:43:28;31.58;;;14.18;;
46407;SDS011;32110;45.724;21.276;2023-12-20T04:45:54;28.80;;;13.73;;
46407;SDS011;32110;45.724;21.276;2023-12-20T04:48:20;30.00;;;14.07;;
46407;SDS011;32110;45.724;21.276;2023-12-20T04:50:45;25.95;;;12.35;;
46407;SDS011;32110;45.724;21.276;2023-12-20T04:53:10;28.95;;;12.60;;
46407;SDS011;32110;45.724;21.276;2023-12-20T04:55:36;68.15;;;20.50;;
46407;SDS011;32110;45.724;21.276;2023-12-20T04:58:01;30.80;;;13.73;;
46407;SDS011;32110;45.724;21.276;2023-12-20T05:00:26;29.40;;;13.80;;
46407;SDS011;32110;45.724;21.276;2023-12-20T05:02:53;31.48;;;14.18;;
46407;SDS011;32110;45.724;21.276;2023-12-20T05:05:18;32.58;;;14.13;;
46407;SDS011;32110;45.724;21.276;2023-12-20T05:07:44;34.20;;;14.93;;
46407;SDS011;32110;45.724;21.276;2023-12-20T05:10:09;28.45;;;13.05;;
46407;SDS011;32110;45.724;21.276;2023-12-20T05:12:34;30.60;;;13.75;;
46407;SDS011;32110;45.724;21.276;2023-12-20T05:15:00;25.55;;;11.98;;
46407;SDS011;32110;45.724;21.276;2023-12-20T05:17:25;29.95;;;12.75;;
46407;SDS011;32110;45.724;21.276;2023-12-20T05:19:51;29.90;;;11.98;;
46407;SDS011;32110;45.724;21.276;2023-12-20T05:22:16;27.02;;;11.52;;
46407;SDS011;32110;45.724;21.276;2023-12-20T05:24:42;29.60;;;12.25;;
46407;SDS011;32110;45.724;21.276;2023-12-20T05:27:07;31.20;;;12.02;;
46407;SDS011;32110;45.724;21.276;2023-12-20T05:29:32;26.95;;;12.15;;
46407;SDS011;32110;45.724;21.276;2023-12-20T05:31:58;25.42;;;11.98;;
46407;SDS011;32110;45.724;21.276;2023-12-20T05:34:23;28.07;;;12.47;;
46407;SDS011;32110;45.724;21.276;2023-12-20T05:36:49;30.45;;;13.25;;
46407;SDS011;32110;45.724;21.276;2023-12-20T05:39:14;36.80;;;14.45;;
46407;SDS011;32110;45.724;21.276;2023-12-20T05:41:39;29.02;;;13.10;;
46407;SDS011;32110;45.724;21.276;2023-12-20T05:44:05;31.20;;;13.27;;
46407;SDS011;32110;45.724;21.276;2023-12-20T05:46:30;34.37;;;13.43;;
46407;SDS011;32110;45.724;21.276;2023-12-20T05:48:55;24.50;;;11.43;;
46407;SDS011;32110;45.724;21.276;2023-12-20T05:51:20;31.60;;;13.25;;
46407;SDS011;32110;45.724;21.276;2023-12-20T05:53:46;27.90;;;12.55;;
46407;SDS011;32110;45.724;21.276;2023-12-20T05:56:11;31.83;;;13.30;;
46407;SDS011;32110;45.724;21.276;2023-12-20T05:58:38;30.85;;;12.13;;
46407;SDS011;32110;45.724;21.276;2023-12-20T06:01:04;29.60;;;12.20;;
46407;SDS011;32110;45.724;21.276;2023-12-20T06:03:29;27.17;;;13.20;;
46407;SDS011;32110;45.724;21.276;2023-12-20T06:05:54;32.83;;;14.50;;
46407;SDS011;32110;45.724;21.276;2023-12-20T06:08:20;29.90;;;14.25;;
46407;SDS011;32110;45.724;21.276;2023-12-20T06:10:45;33.17;;;14.98;;
46407;SDS011;32110;45.724;21.276;2023-12-20T06:13:10;46.90;;;18.77;;
46407;SDS011;32110;45.724;21.276;2023-12-20T06:15:38;61.60;;;25.42;;
46407;SDS011;32110;45.724;21.276;2023-12-20T06:18:03;52.42;;;23.30;;
46407;SDS011;32110;45.724;21.276;2023-12-20T06:20:28;46.15;;;20.50;;
46407;SDS011;32110;45.724;21.276;2023-12-20T06:22:53;37.38;;;18.17;;
46407;SDS011;32110;45.724;21.276;2023-12-20T06:25:19;43.22;;;19.05;;
46407;SDS011;32110;45.724;21.276;2023-12-20T06:27:44;41.65;;;19.80;;
46407;SDS011;32110;45.724;21.276;2023-12-20T06:30:09;38.17;;;15.98;;
46407;SDS011;32110;45.724;21.276;2023-12-20T06:32:35;37.10;;;14.82;;
46407;SDS011;32110;45.724;21.276;2023-12-20T06:35:00;36.08;;;13.95;;
46407;SDS011;32110;45.724;21.276;2023-12-20T06:37:26;31.25;;;13.93;;
46407;SDS011;32110;45.724;21.276;2023-12-20T06:39:51;30.52;;;13.68;;
46407;SDS011;32110;45.724;21.276;2023-12-20T06:42:16;29.67;;;13.18;;
46407;SDS011;32110;45.724;21.276;2023-12-20T06:44:42;32.58;;;14.15;;
46407;SDS011;32110;45.724;21.276;2023-12-20T06:47:07;35.30;;;13.88;;
46407;SDS011;32110;45.724;21.276;2023-12-20T06:49:32;33.57;;;13.63;;
46407;SDS011;32110;45.724;21.276;2023-12-20T06:51:58;31.63;;;13.07;;
46407;SDS011;32110;45.724;21.276;2023-12-20T06:54:23;34.80;;;13.68;;
46407;SDS011;32110;45.724;21.276;2023-12-20T06:56:48;30.80;;;13.45;;
46407;SDS011;32110;45.724;21.276;2023-12-20T06:59:14;28.75;;;12.63;;
46407;SDS011;32110;45.724;21.276;2023-12-20T07:01:39;25.08;;;12.85;;
46407;SDS011;32110;45.724;21.276;2023-12-20T07:04:04;26.23;;;12.87;;
46407;SDS011;32110;45.724;21.276;2023-12-20T07:06:30;32.65;;;13.65;;
46407;SDS011;32110;45.724;21.276;2023-12-20T07:08:55;33.10;;;13.68;;
46407;SDS011;32110;45.724;21.276;2023-12-20T07:11:20;29.90;;;12.77;;
46407;SDS011;32110;45.724;21.276;2023-12-20T07:13:46;31.67;;;12.15;;
46407;SDS011;32110;45.724;21.276;2023-12-20T07:16:11;30.48;;;12.02;;
46407;SDS011;32110;45.724;21.276;2023-12-20T07:18:37;27.60;;;12.40;;
46407;SDS011;32110;45.724;21.276;2023-12-20T07:21:02;28.38;;;12.30;;
46407;SDS011;32110;45.724;21.276;2023-12-20T07:23:28;22.83;;;10.90;;
46407;SDS011;32110;45.724;21.276;2023-12-20T07:25:53;32.25;;;11.95;;
46407;SDS011;32110;45.724;21.276;2023-12-20T07:28:18;23.85;;;10.73;;
46407;SDS011;32110;45.724;21.276;2023-12-20T07:30:44;28.80;;;12.27;;
46407;SDS011;32110;45.724;21.276;2023-12-20T07:33:09;29.63;;;12.63;;
46407;SDS011;32110;45.724;21.276;2023-12-20T07:35:37;28.45;;;11.88;;
46407;SDS011;32110;45.724;21.276;2023-12-20T07:38:02;28.37;;;12.17;;
46407;SDS011;32110;45.724;21.276;2023-12-20T07:40:27;26.15;;;11.65;;
46407;SDS011;32110;45.724;21.276;2023-12-20T07:42:53;29.97;;;12.73;;
46407;SDS011;32110;45.724;21.276;2023-12-20T07:45:18;30.48;;;13.38;;
46407;SDS011;32110;45.724;21.276;2023-12-20T07:47:43;28.20;;;12.70;;
46407;SDS011;32110;45.724;21.276;2023-12-20T07:50:09;30.55;;;12.82;;
46407;SDS011;32110;45.724;21.276;2023-12-20T07:52:35;29.98;;;11.73;;
46407;SDS011;32110;45.724;21.276;2023-12-20T07:55:00;26.42;;;11.65;;
46407;SDS011;32110;45.724;21.276;2023-12-20T07:57:28;25.67;;;12.18;;
46407;SDS011;32110;45.724;21.276;2023-12-20T07:59:53;25.13;;;12.00;;
46407;SDS011;32110;45.724;21.276;2023-12-20T08:02:19;27.33;;;13.07;;
46407;SDS011;32110;45.724;21.276;2023-12-20T08:04:44;33.78;;;12.43;;
46407;SDS011;32110;45.724;21.276;2023-12-20T08:07:09;26.52;;;12.48;;
46407;SDS011;32110;45.724;21.276;2023-12-20T08:09:35;27.23;;;12.88;;
46407;SDS011;32110;45.724;21.276;2023-12-20T08:12:01;29.25;;;14.40;;
46407;SDS011;32110;45.724;21.276;2023-12-20T08:14:27;25.20;;;11.90;;
46407;SDS011;32110;45.724;21.276;2023-12-20T08:16:53;28.95;;;12.05;;
46407;SDS011;32110;45.724;21.276;2023-12-20T08:19:18;27.88;;;12.57;;
46407;SDS011;32110;45.724;21.276;2023-12-20T08:21:44;26.95;;;12.27;;
46407;SDS011;32110;45.724;21.276;2023-12-20T08:24:09;29.27;;;12.20;;
46407;SDS011;32110;45.724;21.276;2023-12-20T08:26:35;31.70;;;14.07;;
46407;SDS011;32110;45.724;21.276;2023-12-20T08:29:00;33.55;;;16.20;;
46407;SDS011;32110;45.724;21.276;2023-12-20T08:31:25;34.20;;;14.00;;
46407;SDS011;32110;45.724;21.276;2023-12-20T08:33:51;31.40;;;14.13;;
46407;SDS011;32110;45.724;21.276;2023-12-20T08:36:18;27.17;;;12.25;;
46407;SDS011;32110;45.724;21.276;2023-12-20T08:38:46;24.17;;;11.32;;
46407;SDS011;32110;45.724;21.276;2023-12-20T08:41:12;21.33;;;10.65;;
46407;SDS011;32110;45.724;21.276;2023-12-20T08:43:37;25.67;;;11.73;;
46407;SDS011;32110;45.724;21.276;2023-12-20T08:46:05;25.52;;;11.73;;
46407;SDS011;32110;45.724;21.276;2023-12-20T08:48:31;27.20;;;12.27;;
46407;SDS011;32110;45.724;21.276;2023-12-20T08:50:56;29.02;;;12.93;;
46407;SDS011;32110;45.724;21.276;2023-12-20T08:53:22;33.47;;;13.45;;
46407;SDS011;32110;45.724;21.276;2023-12-20T08:55:47;33.50;;;12.93;;
46407;SDS011;32110;45.724;21.276;2023-12-20T08:58:13;27.20;;;12.50;;
46407;SDS011;32110;45.724;21.276;2023-12-20T09:00:39;27.30;;;11.43;;
46407;SDS011;32110;45.724;21.276;2023-12-20T09:03:05;25.83;;;12.27;;
46407;SDS011;32110;45.724;21.276;2023-12-20T09:05:30;21.25;;;10.15;;
46407;SDS011;32110;45.724;21.276;2023-12-20T09:07:56;25.23;;;11.77;;
46407;SDS011;32110;45.724;21.276;2023-12-20T09:10:21;26.13;;;11.73;;
46407;SDS011;32110;45.724;21.276;2023-12-20T09:12:48;26.13;;;12.38;;
46407;SDS011;32110;45.724;21.276;2023-12-20T09:15:14;23.98;;;11.27;;
46407;SDS011;32110;45.724;21.276;2023-12-20T09:17:40;29.50;;;12.77;;
46407;SDS011;32110;45.724;21.276;2023-12-20T09:20:06;27.83;;;12.68;;
46407;SDS011;32110;45.724;21.276;2023-12-20T09:22:33;31.85;;;12.45;;
46407;SDS011;32110;45.724;21.276;2023-12-20T09:24:59;28.08;;;11.77;;
46407;SDS011;32110;45.724;21.276;2023-12-20T09:27:25;27.38;;;11.95;;
46407;SDS011;32110;45.724;21.276;2023-12-20T09:29:51;28.67;;;12.40;;
46407;SDS011;32110;45.724;21.276;2023-12-20T09:32:16;30.98;;;11.65;;
46407;SDS011;32110;45.724;21.276;2023-12-20T09:34:42;26.05;;;11.63;;
46407;SDS011;32110;45.724;21.276;2023-12-20T09:37:07;24.95;;;11.48;;
46407;SDS011;32110;45.724;21.276;2023-12-20T09:39:33;32.30;;;11.32;;
46407;SDS011;32110;45.724;21.276;2023-12-20T09:42:05;24.30;;;11.48;;
46407;SDS011;32110;45.724;21.276;2023-12-20T09:44:32;23.63;;;11.57;;
46407;SDS011;32110;45.724;21.276;2023-12-20T09:46:59;29.85;;;12.38;;
46407;SDS011;32110;45.724;21.276;2023-12-20T09:49:27;31.42;;;12.30;;
46407;SDS011;32110;45.724;21.276;2023-12-20T09:51:54;30.85;;;13.27;;
46407;SDS011;32110;45.724;21.276;2023-12-20T09:54:20;25.40;;;12.38;;
46407;SDS011;32110;45.724;21.276;2023-12-20T09:56:46;28.45;;;13.07;;
46407;SDS011;32110;45.724;21.276;2023-12-20T09:59:12;34.90;;;13.02;;
46407;SDS011;32110;45.724;21.276;2023-12-20T10:01:39;30.92;;;13.07;;
46407;SDS011;32110;45.724;21.276;2023-12-20T10:04:05;35.75;;;14.25;;
46407;SDS011;32110;45.724;21.276;2023-12-20T10:06:35;33.77;;;14.90;;
46407;SDS011;32110;45.724;21.276;2023-12-20T10:09:09;29.33;;;13.07;;
46407;SDS011;32110;45.724;21.276;2023-12-20T10:11:36;34.42;;;13.65;;
46407;SDS011;32110;45.724;21.276;2023-12-20T10:14:03;28.75;;;12.60;;
46407;SDS011;32110;45.724;21.276;2023-12-20T10:16:29;25.30;;;12.02;;
46407;SDS011;32110;45.724;21.276;2023-12-20T10:18:55;28.52;;;13.35;;
46407;SDS011;32110;45.724;21.276;2023-12-20T10:21:22;29.73;;;13.40;;
46407;SDS011;32110;45.724;21.276;2023-12-20T10:23:49;29.55;;;13.98;;
46407;SDS011;32110;45.724;21.276;2023-12-20T10:26:21;29.38;;;14.32;;
46407;SDS011;32110;45.724;21.276;2023-12-20T10:28:52;26.02;;;12.90;;
46407;SDS011;32110;45.724;21.276;2023-12-20T10:31:52;23.60;;;12.15;;
46407;SDS011;32110;45.724;21.276;2023-12-20T10:34:10;26.30;;;12.35;;
46407;SDS011;32110;45.724;21.276;2023-12-20T10:36:36;26.35;;;11.75;;
46407;SDS011;32110;45.724;21.276;2023-12-20T10:39:01;25.13;;;12.57;;
46407;SDS011;32110;45.724;21.276;2023-12-20T10:41:28;23.17;;;11.00;;
46407;SDS011;32110;45.724;21.276;2023-12-20T10:44:01;23.88;;;10.88;;
46407;SDS011;32110;45.724;21.276;2023-12-20T10:46:31;21.63;;;11.68;;
46407;SDS011;32110;45.724;21.276;2023-12-20T10:48:59;23.83;;;11.43;;
46407;SDS011;32110;45.724;21.276;2023-12-20T10:51:27;30.42;;;11.98;;
46407;SDS011;32110;45.724;21.276;2023-12-20T10:53:55;23.80;;;11.90;;
46407;SDS011;32110;45.724;21.276;2023-12-20T10:56:21;21.90;;;11.27;;
46407;SDS011;32110;45.724;21.276;2023-12-20T10:58:49;25.15;;;11.73;;
46407;SDS011;32110;45.724;21.276;2023-12-20T11:01:15;30.52;;;13.07;;
46407;SDS011;32110;45.724;21.276;2023-12-20T11:03:44;25.48;;;12.23;;
46407;SDS011;32110;45.724;21.276;2023-12-20T11:09:16;23.83;;;12.23;;
46407;SDS011;32110;45.724;21.276;2023-12-20T11:14:29;33.05;;;13.18;;
46407;SDS011;32110;45.724;21.276;2023-12-20T11:17:09;32.75;;;14.50;;
46407;SDS011;32110;45.724;21.276;2023-12-20T11:19:42;33.88;;;14.25;;
46407;SDS011;32110;45.724;21.276;2023-12-20T11:22:32;25.15;;;13.00;;
46407;SDS011;32110;45.724;21.276;2023-12-20T11:25:19;28.98;;;13.00;;
46407;SDS011;32110;45.724;21.276;2023-12-20T11:27:44;30.17;;;13.15;;
46407;SDS011;32110;45.724;21.276;2023-12-20T11:33:20;36.47;;;14.60;;
46407;SDS011;32110;45.724;21.276;2023-12-20T11:35:50;35.38;;;14.35;;
46407;SDS011;32110;45.724;21.276;2023-12-20T11:38:16;28.00;;;13.57;;
46407;SDS011;32110;45.724;21.276;2023-12-20T11:40:42;38.58;;;13.35;;
46407;SDS011;32110;45.724;21.276;2023-12-20T11:43:09;29.60;;;14.10;;
46407;SDS011;32110;45.724;21.276;2023-12-20T11:45:35;32.25;;;14.05;;
46407;SDS011;32110;45.724;21.276;2023-12-20T11:48:03;30.50;;;13.60;;
46407;SDS011;32110;45.724;21.276;2023-12-20T11:50:29;35.57;;;14.07;;
46407;SDS011;32110;45.724;21.276;2023-12-20T11:52:55;29.23;;;14.23;;
46407;SDS011;32110;45.724;21.276;2023-12-20T11:55:21;28.17;;;12.68;;
46407;SDS011;32110;45.724;21.276;2023-12-20T11:57:48;29.88;;;13.32;;
46407;SDS011;32110;45.724;21.276;2023-12-20T12:00:15;26.08;;;12.55;;
46407;SDS011;32110;45.724;21.276;2023-12-20T12:02:41;27.02;;;12.30;;
46407;SDS011;32110;45.724;21.276;2023-12-20T12:05:07;25.05;;;12.88;;
46407;SDS011;32110;45.724;21.276;2023-12-20T12:07:35;30.02;;;13.45;;
46407;SDS011;32110;45.724;21.276;2023-12-20T12:10:01;30.00;;;13.25;;
46407;SDS011;32110;45.724;21.276;2023-12-20T12:12:28;26.60;;;13.18;;
46407;SDS011;32110;45.724;21.276;2023-12-20T12:14:55;27.17;;;12.50;;
46407;SDS011;32110;45.724;21.276;2023-12-20T12:17:22;28.17;;;12.52;;
46407;SDS011;32110;45.724;21.276;2023-12-20T12:19:48;30.80;;;13.55;;
46407;SDS011;32110;45.724;21.276;2023-12-20T12:22:14;32.17;;;13.32;;
46407;SDS011;32110;45.724;21.276;2023-12-20T12:24:41;28.05;;;13.02;;
46407;SDS011;32110;45.724;21.276;2023-12-20T12:27:08;31.05;;;14.52;;
46407;SDS011;32110;45.724;21.276;2023-12-20T12:29:34;34.80;;;16.25;;
46407;SDS011;32110;45.724;21.276;2023-12-20T12:32:01;28.02;;;14.05;;
46407;SDS011;32110;45.724;21.276;2023-12-20T12:34:29;30.58;;;14.65;;
46407;SDS011;32110;45.724;21.276;2023-12-20T12:36:55;26.75;;;13.95;;
46407;SDS011;32110;45.724;21.276;2023-12-20T12:39:22;30.13;;;13.77;;
46407;SDS011;32110;45.724;21.276;2023-12-20T12:41:50;27.25;;;14.32;;
46407;SDS011;32110;45.724;21.276;2023-12-20T12:44:15;27.02;;;13.55;;
46407;SDS011;32110;45.724;21.276;2023-12-20T12:46:41;34.95;;;14.38;;
46407;SDS011;32110;45.724;21.276;2023-12-20T12:49:06;30.48;;;14.18;;
46407;SDS011;32110;45.724;21.276;2023-12-20T12:51:32;29.35;;;13.65;;
46407;SDS011;32110;45.724;21.276;2023-12-20T12:53:57;31.30;;;14.43;;
46407;SDS011;32110;45.724;21.276;2023-12-20T12:56:23;30.52;;;14.02;;
46407;SDS011;32110;45.724;21.276;2023-12-20T12:58:48;31.70;;;14.43;;
46407;SDS011;32110;45.724;21.276;2023-12-20T13:01:14;34.83;;;15.20;;
46407;SDS011;32110;45.724;21.276;2023-12-20T13:03:40;32.67;;;14.63;;
46407;SDS011;32110;45.724;21.276;2023-12-20T13:06:05;31.25;;;15.43;;
46407;SDS011;32110;45.724;21.276;2023-12-20T13:08:31;25.60;;;14.55;;
46407;SDS011;32110;45.724;21.276;2023-12-20T13:10:56;35.00;;;15.18;;
46407;SDS011;32110;45.724;21.276;2023-12-20T13:13:25;31.95;;;15.48;;
46407;SDS011;32110;45.724;21.276;2023-12-20T13:15:54;40.33;;;15.77;;
46407;SDS011;32110;45.724;21.276;2023-12-20T13:18:20;36.35;;;16.92;;
46407;SDS011;32110;45.724;21.276;2023-12-20T13:20:45;39.67;;;16.58;;
46407;SDS011;32110;45.724;21.276;2023-12-20T13:23:11;40.58;;;18.33;;
46407;SDS011;32110;45.724;21.276;2023-12-20T13:25:36;37.22;;;18.63;;
46407;SDS011;32110;45.724;21.276;2023-12-20T13:28:01;37.87;;;17.97;;
46407;SDS011;32110;45.724;21.276;2023-12-20T13:30:28;38.05;;;18.27;;
46407;SDS011;32110;45.724;21.276;2023-12-20T13:32:53;39.37;;;17.40;;
46407;SDS011;32110;45.724;21.276;2023-12-20T13:35:19;44.75;;;17.88;;
46407;SDS011;32110;45.724;21.276;2023-12-20T13:37:45;36.85;;;16.10;;
46407;SDS011;32110;45.724;21.276;2023-12-20T13:40:10;37.95;;;17.00;;
46407;SDS011;32110;45.724;21.276;2023-12-20T13:42:36;34.33;;;16.08;;
46407;SDS011;32110;45.724;21.276;2023-12-20T13:45:01;36.58;;;16.20;;
46407;SDS011;32110;45.724;21.276;2023-12-20T13:47:27;75.43;;;42.70;;
46407;SDS011;32110;45.724;21.276;2023-12-20T13:49:52;44.47;;;23.40;;
46407;SDS011;32110;45.724;21.276;2023-12-20T13:52:17;46.70;;;22.30;;
46407;SDS011;32110;45.724;21.276;2023-12-20T13:54:43;48.08;;;23.45;;
46407;SDS011;32110;45.724;21.276;2023-12-20T13:57:09;49.22;;;22.63;;
46407;SDS011;32110;45.724;21.276;2023-12-20T13:59:34;49.58;;;22.08;;
46407;SDS011;32110;45.724;21.276;2023-12-20T14:02:00;48.53;;;22.92;;
46407;SDS011;32110;45.724;21.276;2023-12-20T14:04:26;47.42;;;23.92;;
46407;SDS011;32110;45.724;21.276;2023-12-20T14:06:51;53.22;;;23.98;;
46407;SDS011;32110;45.724;21.276;2023-12-20T14:09:17;57.40;;;26.73;;
46407;SDS011;32110;45.724;21.276;2023-12-20T14:11:42;68.13;;;29.75;;